createdAt,value
2018-10-11T00:00:00.121Z,36.90
2018-10-11T00:02:28.462Z,38.67
2018-10-11T00:04:56.932Z,34.73
2018-10-11T00:07:26.577Z,37.30
2018-10-11T00:09:55.640Z,39.77
2018-10-11T00:12:24.134Z,40.90
2018-10-11T00:14:52.506Z,39.60
2018-10-11T00:17:20.930Z,43.60
2018-10-11T00:19:49.334Z,42.30
2018-10-11T00:22:17.621Z,38.87
2018-10-11T00:24:46.044Z,38.30
2018-10-11T00:27:14.483Z,44.07
2018-10-11T00:29:42.859Z,41.80
2018-10-11T00:32:11.232Z,44.57
2018-10-11T00:34:39.633Z,45.20
2018-10-11T00:37:08.039Z,42.70
2018-10-11T00:39:36.534Z,42.23
2018-10-11T00:42:05.021Z,43.20
2018-10-11T00:44:33.539Z,44.43
2018-10-11T00:47:01.990Z,43.73
2018-10-11T00:49:30.409Z,43.30
2018-10-11T00:51:58.833Z,39.10
2018-10-11T00:54:27.160Z,40.13
2018-10-11T00:56:55.681Z,42.17
2018-10-11T00:59:24.360Z,45.00
2018-10-11T01:01:52.699Z,41.90
2018-10-11T01:04:21.162Z,39.87
2018-10-11T01:06:49.666Z,39.53
2018-10-11T01:09:18.219Z,37.27
2018-10-11T01:11:46.706Z,42.33
2018-10-11T01:14:15.073Z,38.80
2018-10-11T01:16:43.462Z,40.90
2018-10-11T01:19:11.899Z,36.60
2018-10-11T01:21:40.360Z,36.43
2018-10-11T01:24:09.402Z,41.90
2018-10-11T01:26:37.830Z,41.33
2018-10-11T01:29:06.214Z,38.80
2018-10-11T01:31:34.693Z,35.47
2018-10-11T01:34:03.172Z,37.27
2018-10-11T01:36:31.578Z,37.80
2018-10-11T01:39:00.004Z,38.60
2018-10-11T01:41:28.667Z,38.40
2018-10-11T01:43:57.036Z,36.67
2018-10-11T01:46:25.379Z,40.27
2018-10-11T01:48:53.757Z,39.10
2018-10-11T01:51:22.155Z,41.27
2018-10-11T01:53:50.589Z,43.00
2018-10-11T01:56:18.978Z,45.13
2018-10-11T01:58:48.079Z,40.07
2018-10-11T02:01:16.525Z,40.30
2018-10-11T02:03:45.194Z,40.70
2018-10-11T02:06:13.691Z,41.30
2018-10-11T02:08:42.102Z,53.67
2018-10-11T02:11:10.426Z,52.83
2018-10-11T02:13:38.864Z,48.27
2018-10-11T02:16:07.198Z,45.33
2018-10-11T02:18:35.563Z,42.33
2018-10-11T02:21:03.992Z,47.17
2018-10-11T02:23:32.606Z,48.10
2018-10-11T02:26:01.044Z,49.87
2018-10-11T02:28:29.458Z,48.63
2018-10-11T02:30:57.998Z,42.13
2018-10-11T02:33:26.393Z,41.57
2018-10-11T02:35:55.029Z,39.20
2018-10-11T02:38:23.525Z,40.10
2018-10-11T02:40:52.980Z,39.43
2018-10-11T02:43:21.393Z,39.43
2018-10-11T02:45:49.726Z,36.60
2018-10-11T02:48:18.206Z,36.03
2018-10-11T02:50:46.606Z,35.77
2018-10-11T02:53:15.033Z,33.70
2018-10-11T02:55:43.532Z,34.37
2018-10-11T02:58:20.882Z,35.37
2018-10-11T03:00:49.254Z,36.33
2018-10-11T03:03:21.028Z,32.30
2018-10-11T03:05:49.394Z,34.53
2018-10-11T03:08:19.865Z,35.20
2018-10-11T03:10:48.856Z,34.97
2018-10-11T03:13:17.218Z,33.37
2018-10-11T03:15:45.654Z,36.00
2018-10-11T03:18:14.597Z,32.20
2018-10-11T03:20:44.293Z,32.07
2018-10-11T03:23:13.619Z,32.87
2018-10-11T03:25:43.194Z,34.30
2018-10-11T03:28:13.025Z,33.10
2018-10-11T03:30:41.716Z,33.10
2018-10-11T03:33:10.514Z,33.30
2018-10-11T03:35:39.185Z,33.47
2018-10-11T03:38:07.595Z,37.20
2018-10-11T03:40:36.106Z,37.33
2018-10-11T03:43:04.514Z,36.53
2018-10-11T03:45:33.018Z,35.70
2018-10-11T03:48:01.335Z,36.90
2018-10-11T03:50:29.686Z,36.17
2018-10-11T03:52:58.657Z,35.97
2018-10-11T03:55:27.814Z,35.37
2018-10-11T03:57:56.564Z,38.60
2018-10-11T04:00:25.491Z,36.50
2018-10-11T04:02:53.844Z,39.13
2018-10-11T04:05:22.279Z,37.07
2018-10-11T04:07:50.916Z,37.90
2018-10-11T04:10:19.514Z,38.67
2018-10-11T04:12:47.937Z,36.00
2018-10-11T04:15:16.241Z,40.23
2018-10-11T04:17:44.665Z,41.83
2018-10-11T04:20:13.027Z,38.10
2018-10-11T04:22:42.106Z,38.00
2018-10-11T04:25:10.544Z,38.77
2018-10-11T04:27:38.968Z,38.70
2018-10-11T04:30:07.728Z,40.97
2018-10-11T04:32:36.298Z,39.20
2018-10-11T04:35:04.748Z,39.90
2018-10-11T04:37:33.348Z,38.43
2018-10-11T04:40:01.819Z,40.10
2018-10-11T04:42:30.639Z,39.73
2018-10-11T04:44:59.410Z,41.60
2018-10-11T04:47:27.891Z,41.97
2018-10-11T04:49:56.399Z,41.70
2018-10-11T04:52:25.078Z,44.30
2018-10-11T04:54:53.583Z,47.00
2018-10-11T04:57:22.007Z,43.57
2018-10-11T04:59:50.723Z,43.20
2018-10-11T05:02:19.096Z,47.30
2018-10-11T05:04:47.598Z,44.47
2018-10-11T05:07:16.183Z,45.07
2018-10-11T05:09:44.903Z,43.43
2018-10-11T05:12:13.339Z,42.57
2018-10-11T05:14:41.791Z,39.87
2018-10-11T05:17:10.559Z,45.10
2018-10-11T05:19:39.661Z,43.07
2018-10-11T05:22:08.070Z,40.63
2018-10-11T05:24:36.454Z,38.33
2018-10-11T05:27:04.938Z,43.47
2018-10-11T05:29:33.388Z,41.70
2018-10-11T05:32:01.909Z,40.00
2018-10-11T05:34:30.384Z,40.93
2018-10-11T05:37:00.008Z,43.93
2018-10-11T05:39:28.372Z,43.33
2018-10-11T05:41:56.942Z,41.17
2018-10-11T05:44:25.330Z,43.50
2018-10-11T05:46:53.851Z,41.33
2018-10-11T05:49:23.134Z,41.10
2018-10-11T05:51:52.100Z,43.07
2018-10-11T05:54:20.962Z,42.90
2018-10-11T05:56:50.233Z,42.37
2018-10-11T05:59:18.637Z,43.43
2018-10-11T06:01:47.243Z,43.57
2018-10-11T06:04:15.685Z,43.03
2018-10-11T06:06:45.486Z,45.63
2018-10-11T06:09:13.863Z,46.53
2018-10-11T06:11:42.495Z,47.27
2018-10-11T06:14:11.370Z,44.03
2018-10-11T06:16:39.888Z,39.33
2018-10-11T06:19:08.277Z,36.73
2018-10-11T06:21:37.256Z,35.20
2018-10-11T06:24:05.668Z,34.67
2018-10-11T06:26:34.023Z,33.13
2018-10-11T06:29:02.484Z,31.40
2018-10-11T06:31:30.920Z,31.83
2018-10-11T06:33:59.356Z,29.37
2018-10-11T06:36:28.071Z,31.07
2018-10-11T06:38:57.471Z,30.40
2018-10-11T06:41:26.697Z,28.90
2018-10-11T06:43:55.086Z,31.23
2018-10-11T06:46:23.549Z,29.40
2018-10-11T06:48:52.320Z,27.50
2018-10-11T06:51:20.823Z,28.13
2018-10-11T06:53:50.553Z,26.40
2018-10-11T06:56:19.103Z,25.93
2018-10-11T06:58:47.550Z,25.17
2018-10-11T07:01:15.929Z,27.30
2018-10-11T07:03:44.332Z,27.30
2018-10-11T07:06:12.808Z,24.40
2018-10-11T07:08:41.940Z,24.90
2018-10-11T07:11:10.494Z,23.10
2018-10-11T07:13:38.949Z,24.63
2018-10-11T07:16:07.458Z,24.70
2018-10-11T07:18:35.882Z,25.00
2018-10-11T07:21:04.348Z,24.57
2018-10-11T07:23:32.840Z,23.60
2018-10-11T07:26:01.388Z,24.00
2018-10-11T07:28:31.536Z,26.20
2018-10-11T07:31:00.104Z,23.83
2018-10-11T07:33:28.487Z,24.47
2018-10-11T07:35:57.179Z,25.07
2018-10-11T07:38:25.593Z,24.00
2018-10-11T07:40:54.387Z,23.93
2018-10-11T07:43:22.889Z,23.40
2018-10-11T07:45:52.169Z,25.63
2018-10-11T07:48:20.666Z,21.67
2018-10-11T07:50:49.307Z,22.13
2018-10-11T07:53:17.903Z,21.90
2018-10-11T07:55:46.362Z,20.97
2018-10-11T07:58:14.939Z,21.93
2018-10-11T08:00:43.375Z,23.43
2018-10-11T08:03:11.800Z,21.93
2018-10-11T08:05:40.253Z,20.50
2018-10-11T08:08:09.025Z,19.70
2018-10-11T08:10:37.558Z,19.40
2018-10-11T08:13:06.168Z,19.70
2018-10-11T08:15:34.662Z,18.87
2018-10-11T08:18:03.291Z,18.10
2018-10-11T08:20:31.614Z,18.90
2018-10-11T08:23:02.172Z,17.40
2018-10-11T08:25:30.840Z,17.27
2018-10-11T08:27:58.939Z,15.80
2018-10-11T08:30:27.625Z,16.80
2018-10-11T08:32:56.091Z,17.00
2018-10-11T08:35:24.615Z,17.90
2018-10-11T08:37:53.267Z,15.20
2018-10-11T08:40:21.741Z,16.90
2018-10-11T08:42:51.112Z,17.10
2018-10-11T08:45:19.738Z,15.30
2018-10-11T08:47:48.315Z,15.17
2018-10-11T08:50:16.974Z,15.47
2018-10-11T08:52:45.543Z,14.40
2018-10-11T08:55:14.056Z,16.17
2018-10-11T08:57:42.535Z,15.50
2018-10-11T09:00:11.107Z,16.37
2018-10-11T09:02:39.597Z,15.10
2018-10-11T09:05:08.248Z,13.53
2018-10-11T09:07:36.717Z,15.30
2018-10-11T09:10:08.786Z,14.13
2018-10-11T09:12:37.480Z,14.47
2018-10-11T09:15:07.605Z,15.77
2018-10-11T09:17:36.198Z,15.07
2018-10-11T09:20:05.058Z,14.30
2018-10-11T09:22:34.297Z,13.20
2018-10-11T09:25:02.723Z,13.77
2018-10-11T09:27:31.463Z,13.53
2018-10-11T09:29:59.943Z,14.90
2018-10-11T09:32:28.506Z,14.30
2018-10-11T09:34:56.835Z,14.53
2018-10-11T09:37:25.326Z,14.20
2018-10-11T09:39:53.911Z,14.47
2018-10-11T09:42:22.493Z,14.27
2018-10-11T09:44:51.126Z,13.77
2018-10-11T09:47:20.139Z,12.33
2018-10-11T09:49:48.846Z,13.17
2018-10-11T09:52:17.466Z,12.77
2018-10-11T09:54:46.085Z,12.40
2018-10-11T09:57:17.583Z,13.23
2018-10-11T09:59:46.132Z,12.10
2018-10-11T10:02:15.006Z,12.60
2018-10-11T10:04:45.951Z,12.80
2018-10-11T10:07:14.625Z,12.17
2018-10-11T10:09:43.798Z,12.33
2018-10-11T10:12:12.726Z,11.80
2018-10-11T10:14:42.093Z,12.00
2018-10-11T10:17:11.000Z,12.50
2018-10-11T10:19:40.896Z,12.20
2018-10-11T10:22:10.470Z,12.10
2018-10-11T10:24:38.974Z,12.07
2018-10-11T10:27:07.482Z,10.00
2018-10-11T10:29:36.059Z,11.13
2018-10-11T10:32:05.567Z,10.60
2018-10-11T10:34:34.052Z,10.40
2018-10-11T10:37:03.409Z,10.30
2018-10-11T10:39:32.084Z,10.30
2018-10-11T10:42:00.769Z,9.67
2018-10-11T10:44:29.212Z,9.90
2018-10-11T10:46:58.129Z,9.33
2018-10-11T10:49:27.058Z,9.33
2018-10-11T10:51:56.189Z,9.27
2018-10-11T10:54:29.232Z,8.43
2018-10-11T10:56:58.408Z,7.30
2018-10-11T10:59:27.044Z,7.90
2018-10-11T11:01:56.752Z,7.57
2018-10-11T11:04:25.389Z,7.53
2018-10-11T11:06:54.138Z,7.43
2018-10-11T11:09:23.000Z,7.77
2018-10-11T11:11:54.589Z,7.70
2018-10-11T11:14:23.337Z,6.20
2018-10-11T11:16:51.788Z,7.50
2018-10-11T11:19:20.402Z,6.93
2018-10-11T11:21:49.501Z,6.73
2018-10-11T11:24:17.992Z,7.00
2018-10-11T11:26:46.899Z,7.40
2018-10-11T11:29:15.721Z,6.00
2018-10-11T11:31:44.249Z,6.60
2018-10-11T11:34:16.108Z,7.20
2018-10-11T11:36:46.981Z,5.70
2018-10-11T11:39:15.787Z,6.90
2018-10-11T11:41:46.407Z,6.70
2018-10-11T11:44:15.281Z,5.90
2018-10-11T11:46:45.064Z,6.77
2018-10-11T11:49:13.681Z,6.30
2018-10-11T11:51:43.986Z,5.23
2018-10-11T11:54:17.476Z,5.27
2018-10-11T11:56:46.618Z,5.80
2018-10-11T11:59:15.175Z,6.57
2018-10-11T12:01:44.542Z,5.43
2018-10-11T12:04:16.317Z,6.00
2018-10-11T12:06:45.425Z,6.40
2018-10-11T12:09:15.885Z,5.47
2018-10-11T12:11:44.471Z,5.83
2018-10-11T12:14:13.645Z,5.30
2018-10-11T12:16:42.396Z,5.40
2018-10-11T12:19:12.089Z,5.83
2018-10-11T12:21:41.322Z,5.60
2018-10-11T12:24:10.826Z,5.03
2018-10-11T12:26:39.249Z,4.60
2018-10-11T12:29:08.451Z,5.90
2018-10-11T12:31:37.365Z,4.47
2018-10-11T12:34:06.106Z,5.10
2018-10-11T12:36:34.640Z,5.00
2018-10-11T12:39:05.439Z,5.33
2018-10-11T12:41:36.068Z,5.13
2018-10-11T12:44:05.465Z,5.40
2018-10-11T12:46:36.890Z,5.53
2018-10-11T12:49:02.405Z,6.33
2018-10-11T12:51:30.909Z,6.17
2018-10-11T12:53:59.441Z,5.50
2018-10-11T12:56:28.004Z,6.60
2018-10-11T12:58:59.053Z,6.10
2018-10-11T13:01:29.249Z,5.07
2018-10-11T13:03:58.145Z,5.40
2018-10-11T13:06:26.993Z,5.40
2018-10-11T13:08:55.446Z,5.60
2018-10-11T13:11:29.062Z,5.10
2018-10-11T13:13:59.385Z,5.43
2018-10-11T13:16:28.395Z,4.20
2018-10-11T13:18:57.547Z,5.33
2018-10-11T13:21:26.661Z,4.93
2018-10-11T13:23:55.188Z,5.03
2018-10-11T13:26:23.884Z,4.33
2018-10-11T13:28:53.743Z,4.43
2018-10-11T13:31:22.455Z,4.57
2018-10-11T13:33:52.998Z,3.70
2018-10-11T13:36:21.841Z,4.30
2018-10-11T13:38:50.813Z,4.17
2018-10-11T13:41:22.911Z,4.20
2018-10-11T13:43:54.256Z,3.90
2018-10-11T13:46:22.836Z,3.70
2018-10-11T13:48:51.288Z,4.13
2018-10-11T13:51:19.764Z,4.23
2018-10-11T13:53:55.481Z,4.40
2018-10-11T13:56:17.987Z,4.30
2018-10-11T13:58:46.592Z,3.63
2018-10-11T14:01:15.050Z,3.43
2018-10-11T14:03:43.850Z,3.57
2018-10-11T14:06:12.977Z,4.70
2018-10-11T14:08:41.466Z,4.60
2018-10-11T14:11:10.181Z,4.73
2018-10-11T14:13:39.425Z,5.57
2018-10-11T14:16:15.866Z,5.13
2018-10-11T14:18:44.400Z,3.10
2018-10-11T14:21:12.888Z,3.87
2018-10-11T14:23:41.418Z,3.17
2018-10-11T14:26:09.763Z,3.77
2018-10-11T14:28:38.498Z,4.10
2018-10-11T14:31:07.266Z,4.63
2018-10-11T14:33:35.784Z,5.23
2018-10-11T14:36:04.220Z,4.97
2018-10-11T14:38:32.950Z,5.43
2018-10-11T14:41:02.369Z,5.47
2018-10-11T14:43:30.948Z,5.40
2018-10-11T14:45:59.463Z,6.13
2018-10-11T14:48:28.165Z,5.10
2018-10-11T14:50:56.763Z,5.67
2018-10-11T14:53:25.152Z,5.67
2018-10-11T14:55:53.684Z,6.13
2018-10-11T14:58:23.347Z,5.60
2018-10-11T15:00:51.935Z,5.93
2018-10-11T15:03:20.761Z,4.37
2018-10-11T15:05:49.368Z,4.97
2018-10-11T15:08:17.812Z,5.00
2018-10-11T15:10:46.965Z,5.03
2018-10-11T15:13:15.620Z,5.20
2018-10-11T15:15:44.368Z,6.07
2018-10-11T15:18:12.769Z,6.23
2018-10-11T15:20:41.391Z,5.57
2018-10-11T15:23:09.776Z,6.07
2018-10-11T15:25:38.791Z,6.20
2018-10-11T15:28:09.547Z,6.20
2018-10-11T15:30:40.027Z,6.30
2018-10-11T15:33:09.475Z,6.37
2018-10-11T15:35:46.332Z,6.80
2018-10-11T15:38:15.800Z,6.57
2018-10-11T15:40:44.484Z,7.00
2018-10-11T15:43:14.320Z,6.43
2018-10-11T15:45:42.728Z,7.03
2018-10-11T15:48:11.245Z,7.07
2018-10-11T15:50:42.683Z,6.47
2018-10-11T15:53:11.151Z,6.97
2018-10-11T15:55:40.270Z,6.47
2018-10-11T15:58:08.708Z,7.20
2018-10-11T16:00:37.387Z,6.70
2018-10-11T16:03:05.857Z,7.47
2018-10-11T16:05:34.362Z,8.10
2018-10-11T16:08:03.187Z,6.77
2018-10-11T16:10:31.798Z,7.70
2018-10-11T16:13:00.461Z,7.27
2018-10-11T16:15:29.043Z,7.97
2018-10-11T16:17:57.621Z,7.80
2018-10-11T16:20:26.963Z,6.63
2018-10-11T16:22:56.414Z,7.77
2018-10-11T16:25:24.816Z,7.27
2018-10-11T16:27:53.380Z,6.90
2018-10-11T16:30:22.932Z,6.60
2018-10-11T16:32:51.492Z,7.30
2018-10-11T16:35:21.372Z,6.87
2018-10-11T16:37:49.874Z,7.00
2018-10-11T16:40:18.610Z,7.00
2018-10-11T16:42:47.380Z,7.70
2018-10-11T16:45:16.745Z,7.23
2018-10-11T16:47:46.049Z,8.27
2018-10-11T16:50:14.783Z,7.93
2018-10-11T16:52:44.016Z,7.47
2018-10-11T16:55:13.496Z,8.00
2018-10-11T16:57:42.920Z,8.17
2018-10-11T17:00:11.492Z,8.40
2018-10-11T17:02:40.305Z,7.80
2018-10-11T17:05:08.884Z,8.53
2018-10-11T17:07:37.433Z,8.73
2018-10-11T17:10:06.308Z,7.53
2018-10-11T17:12:34.726Z,8.33
2018-10-11T17:15:03.534Z,8.70
2018-10-11T17:17:32.138Z,8.37
2018-10-11T17:20:01.062Z,8.17
2018-10-11T17:25:51.194Z,8.77
2018-10-11T17:28:19.580Z,8.00
2018-10-11T17:30:50.114Z,8.37
2018-10-11T17:33:18.602Z,8.63
2018-10-11T17:35:47.304Z,9.27
2018-10-11T17:38:15.725Z,8.10
2018-10-11T17:40:44.323Z,8.53
2018-10-11T17:43:12.819Z,8.87
2018-10-11T17:45:41.403Z,7.93
2018-10-11T17:48:10.398Z,8.30
2018-10-11T17:50:38.931Z,9.03
2018-10-11T17:53:07.520Z,8.53
2018-10-11T17:55:36.160Z,8.90
2018-10-11T17:58:04.749Z,8.83
2018-10-11T18:00:34.412Z,8.70
2018-10-11T18:03:04.069Z,8.77
2018-10-11T18:05:32.689Z,9.00
2018-10-11T18:08:03.218Z,8.20
2018-10-11T18:10:31.757Z,10.07
2018-10-11T18:13:00.916Z,8.70
2018-10-11T18:15:29.353Z,10.43
2018-10-11T18:17:57.930Z,11.10
2018-10-11T18:20:26.398Z,10.90
2018-10-11T18:22:56.183Z,10.70
2018-10-11T18:25:25.626Z,11.10
2018-10-11T18:27:58.660Z,11.63
2018-10-11T18:30:29.654Z,12.30
2018-10-11T18:32:58.720Z,11.60
2018-10-11T18:35:27.762Z,12.70
2018-10-11T18:37:56.308Z,13.03
2018-10-11T18:40:24.711Z,11.90
2018-10-11T18:42:53.429Z,13.40
2018-10-11T18:45:21.874Z,12.63
2018-10-11T18:47:51.681Z,12.87
2018-10-11T18:50:20.987Z,14.07
2018-10-11T18:52:49.555Z,12.77
2018-10-11T18:55:19.319Z,13.23
2018-10-11T18:57:48.026Z,12.07
2018-10-11T19:00:17.143Z,13.67
2018-10-11T19:02:46.320Z,13.07
2018-10-11T19:05:15.044Z,13.50
2018-10-11T19:07:43.687Z,13.60
2018-10-11T19:10:12.284Z,13.97
2018-10-11T19:12:40.793Z,15.40
2018-10-11T19:15:09.238Z,14.43
2018-10-11T19:17:37.764Z,15.20
2018-10-11T19:20:06.393Z,15.30
2018-10-11T19:22:37.392Z,16.00
2018-10-11T19:25:05.980Z,14.97
2018-10-11T19:27:34.456Z,14.53
2018-10-11T19:30:03.747Z,16.00
2018-10-11T19:32:32.338Z,14.87
2018-10-11T19:35:00.962Z,17.40
2018-10-11T19:37:29.327Z,18.17
2018-10-11T19:39:58.183Z,16.80
2018-10-11T19:42:26.746Z,15.33
2018-10-11T19:44:56.326Z,16.60
2018-10-11T19:47:24.984Z,16.30
2018-10-11T19:49:53.541Z,16.10
2018-10-11T19:52:22.321Z,18.37
2018-10-11T19:54:50.636Z,16.13
2018-10-11T19:57:20.353Z,17.03
2018-10-11T19:59:49.340Z,15.43
2018-10-11T20:02:18.134Z,16.77
2018-10-11T20:04:46.664Z,17.90
2018-10-11T20:07:15.154Z,16.50
2018-10-11T20:09:45.236Z,16.47
2018-10-11T20:12:13.822Z,16.40
2018-10-11T20:14:42.275Z,17.17
2018-10-11T20:17:14.065Z,15.00
2018-10-11T20:19:43.202Z,15.40
2018-10-11T20:22:12.987Z,14.47
2018-10-11T20:24:42.441Z,16.23
2018-10-11T20:27:11.223Z,15.50
2018-10-11T20:29:40.540Z,16.70
2018-10-11T20:32:09.612Z,15.50
2018-10-11T20:34:38.064Z,16.27
2018-10-11T20:37:06.800Z,16.33
2018-10-11T20:39:35.159Z,15.30
2018-10-11T20:42:03.778Z,17.90
2018-10-11T20:44:32.223Z,16.80
2018-10-11T20:47:00.666Z,17.80
2018-10-11T20:49:29.204Z,16.13
2018-10-11T20:51:57.795Z,17.53
2018-10-11T20:54:26.298Z,16.63
2018-10-11T20:56:54.903Z,16.30
2018-10-11T20:59:24.298Z,16.33
2018-10-11T21:01:52.784Z,16.93
2018-10-11T21:04:21.314Z,16.67
2018-10-11T21:06:50.194Z,13.70
2018-10-11T21:09:18.552Z,15.53
2018-10-11T21:11:47.226Z,16.10
2018-10-11T21:14:16.031Z,14.30
2018-10-11T21:16:44.482Z,15.47
2018-10-11T21:19:12.937Z,15.57
2018-10-11T21:21:41.342Z,14.30
2018-10-11T21:24:09.765Z,14.30
2018-10-11T21:26:38.129Z,14.63
2018-10-11T21:29:06.521Z,14.80
2018-10-11T21:31:35.230Z,15.60
2018-10-11T21:34:03.651Z,15.37
2018-10-11T21:36:33.375Z,14.00
2018-10-11T21:39:01.889Z,15.50
2018-10-11T21:41:30.366Z,15.40
2018-10-11T21:43:58.890Z,14.47
2018-10-11T21:46:27.325Z,16.47
2018-10-11T21:48:55.756Z,15.47
2018-10-11T21:51:24.171Z,15.27
2018-10-11T21:53:52.906Z,16.47
2018-10-11T21:56:21.284Z,15.43
2018-10-11T21:58:49.768Z,15.77
2018-10-11T22:01:22.456Z,15.80
2018-10-11T22:03:51.325Z,15.63
2018-10-11T22:06:19.830Z,16.53
2018-10-11T22:08:48.195Z,17.50
2018-10-11T22:11:16.491Z,16.30
2018-10-11T22:13:45.225Z,15.97
2018-10-11T22:16:13.704Z,16.80
2018-10-11T22:18:42.340Z,16.60
2018-10-11T22:21:11.704Z,17.30
2018-10-11T22:23:41.414Z,16.33
2018-10-11T22:26:10.126Z,14.90
2018-10-11T22:28:38.874Z,17.47
2018-10-11T22:31:08.435Z,15.73
2018-10-11T22:33:36.805Z,15.53
2018-10-11T22:36:05.932Z,15.27
2018-10-11T22:38:34.337Z,15.60
2018-10-11T22:41:02.820Z,16.20
2018-10-11T22:43:31.082Z,15.37
2018-10-11T22:45:59.465Z,15.20
2018-10-11T22:48:27.945Z,14.60
2018-10-11T22:50:56.373Z,15.40
2018-10-11T22:53:24.779Z,15.13
2018-10-11T22:55:53.163Z,14.97
2018-10-11T22:58:21.584Z,14.47
2018-10-11T23:00:50.090Z,14.47
2018-10-11T23:03:18.476Z,13.67
2018-10-11T23:05:47.069Z,14.30
2018-10-11T23:08:15.680Z,14.63
2018-10-11T23:10:44.176Z,14.57
2018-10-11T23:13:12.603Z,15.90
2018-10-11T23:15:40.972Z,14.60
2018-10-11T23:18:09.418Z,15.13
2018-10-11T23:20:37.799Z,15.13
2018-10-11T23:23:06.205Z,13.83
2018-10-11T23:25:34.543Z,14.27
2018-10-11T23:28:03.019Z,14.60
2018-10-11T23:30:31.519Z,14.27
2018-10-11T23:32:59.863Z,14.30
2018-10-11T23:35:28.285Z,14.70
2018-10-11T23:37:56.705Z,15.23
2018-10-11T23:40:25.089Z,14.83
2018-10-11T23:42:53.403Z,14.93
2018-10-11T23:45:21.827Z,13.60
2018-10-11T23:47:50.153Z,14.40
2018-10-11T23:50:18.612Z,13.57
2018-10-11T23:52:47.017Z,13.60
2018-10-11T23:55:15.401Z,13.50
2018-10-11T23:57:43.804Z,13.97
